This is the latest recevied weather packets stored in our database for station/object N0TKN. If no packets are shown the sender has not sent any weather packets the latest 10 day(s).
| Time | Temp. | Humidity | Pressure | Rain* | Wind** | Luminosity | Snow |
|---|---|---|---|---|---|---|---|
| 1777734317 | 13.33° C | 57% | 1019.1 hPa | 0 mm | - | 569 W/m² | - |
| 1777733718 | 13.33° C | 62% | 1018.5 hPa | 0 mm | - | 641 W/m² | - |
| 1777733138 | 12.78° C | 67% | 1018.5 hPa | 0 mm | - | 603 W/m² | - |
| 1777732518 | 12.22° C | 70% | 1018.4 hPa | 0 mm | - | 573 W/m² | - |
| 1777731918 | 12.22° C | 70% | 1018.5 hPa | 0 mm | - | 539 W/m² | - |
| 1777731315 | 11.67° C | 72% | 1018.4 hPa | 0 mm | - | 505 W/m² | - |
| 1777730716 | 11.11° C | 76% | 1018.6 hPa | 0 mm | - | 475 W/m² | - |
| 1777730116 | 10.56° C | 78% | 1018.9 hPa | 0 mm | - | 440 W/m² | - |
| 1777729516 | 10.56° C | 79% | 1018.8 hPa | 0 mm | - | 406 W/m² | - |
| 1777728916 | 10.56° C | 81% | 1018.7 hPa | 0 mm | - | 368 W/m² | - |
| 1777728316 | 10° C | 82% | 1018.7 hPa | 0 mm | - | 342 W/m² | - |
| 1777727716 | 9.44° C | 83% | 1018.6 hPa | 0 mm | - | 309 W/m² | - |
| 1777727117 | 9.44° C | 84% | 1018.6 hPa | 0 mm | - | 265 W/m² | - |
| 1777726516 | 8.89° C | 86% | 1018.6 hPa | 0 mm | - | 244 W/m² | - |
| 1777725917 | 8.33° C | 88% | 1018.7 hPa | 0 mm | - | 196 W/m² | - |
| 1777725317 | 7.78° C | 92% | 1018.6 hPa | 0 mm | - | 165 W/m² | - |
| 1777724717 | 7.22° C | 96% | 1018.7 hPa | 0 mm | - | 127 W/m² | - |
| 1777724117 | 6.67° C | 97% | 1018.6 hPa | 0 mm | - | 107 W/m² | - |
| 1777723517 | 6.11° C | 97% | 1018.6 hPa | 0 mm | - | 66 W/m² | - |
| 1777722917 | 6.11° C | 97% | 1018.3 hPa | 0 mm | - | 43 W/m² | - |
| 1777722318 | 6.11° C | 96% | 1018.4 hPa | 0 mm | - | 28 W/m² | - |
| 1777721718 | 6.11° C | 96% | 1018.5 hPa | 0 mm | - | 18 W/m² | - |
| 1777721118 | 6.11° C | 95% | 1018.6 hPa | 0 mm | - | 10 W/m² | - |
| 1777720518 | 6.11° C | 94% | 1018.4 hPa | 0 mm | - | 4 W/m² | - |
| 1777719918 | 6.11° C | 94% | 1018.4 hPa | 0 mm | - | 1 W/m² | - |
* Rain latest hour (hover to see other rain measurements)
** Current wind speed in m/s (hover to see current wind gust speed)